Time;durP1;ratioP1;P1;durP2;ratioP2;P2;SDS_P1;SDS_P2;PMS_P1;PMS_P2;Temp;Humidity;BMP_temperature;BMP_pressure;BME280_temperature;BME280_humidity;BME280_pressure;Samples;Min_cycle;Max_cycle;Signal;HPM_P1;HPM_P2
2023/06/29 00:02:07;;;;;;;3.60;3.27;;;;;;;;;;5112886;28;20206;-79
2023/06/29 00:04:34;;;;;;;7.90;4.40;;;;;;;;;;5112606;28;20202;-79
2023/06/29 00:07:03;;;;;;;5.83;3.67;;;;;;;;;;5099706;28;20709;-81
2023/06/29 00:09:29;;;;;;;4.63;3.60;;;;;;;;;;5098685;28;20203;-79
2023/06/29 00:11:56;;;;;;;6.27;3.53;;;;;;;;;;5112893;28;20671;-79
2023/06/29 00:14:23;;;;;;;4.10;3.80;;;;;;;;;;5112684;28;20209;-79
2023/06/29 00:16:53;;;;;;;4.93;3.87;;;;;;;;;;5112667;28;20214;-79
2023/06/29 00:19:20;;;;;;;4.00;3.70;;;;;;;;;;5092380;28;20294;-79
2023/06/29 00:21:47;;;;;;;3.57;3.27;;;;;;;;;;5105665;28;20692;-79
2023/06/29 00:24:16;;;;;;;3.70;3.40;;;;;;;;;;5093151;28;20575;-80
2023/06/29 00:26:42;;;;;;;3.87;3.43;;;;;;;;;;5106936;28;20205;-80
2023/06/29 00:29:09;;;;;;;3.30;3.10;;;;;;;;;;5104296;28;20203;-80
2023/06/29 00:31:36;;;;;;;3.50;3.20;;;;;;;;;;5093565;28;20259;-79
2023/06/29 00:34:03;;;;;;;3.27;3.00;;;;;;;;;;5112464;28;20214;-79
2023/06/29 00:36:29;;;;;;;3.77;3.47;;;;;;;;;;5097137;28;20600;-80
2023/06/29 00:38:56;;;;;;;4.00;3.57;;;;;;;;;;5100785;28;20260;-79
2023/06/29 00:41:24;;;;;;;5.37;3.50;;;;;;;;;;5096451;28;20746;-80
2023/06/29 00:43:51;;;;;;;3.37;3.13;;;;;;;;;;5101332;28;20204;-80
2023/06/29 00:46:19;;;;;;;4.47;3.47;;;;;;;;;;5111764;28;20208;-80
2023/06/29 00:48:47;;;;;;;4.47;3.77;;;;;;;;;;5101348;28;20229;-80
2023/06/29 00:51:15;;;;;;;3.37;3.13;;;;;;;;;;5105796;28;20248;-80
2023/06/29 00:53:42;;;;;;;4.60;3.60;;;;;;;;;;5092055;28;20202;-80
2023/06/29 00:56:09;;;;;;;3.47;3.27;;;;;;;;;;5108534;28;20685;-80
2023/06/29 00:58:37;;;;;;;4.30;3.67;;;;;;;;;;5112179;28;20257;-81
2023/06/29 01:01:04;;;;;;;5.70;3.70;;;;;;;;;;5094029;28;20203;-80
2023/06/29 01:03:31;;;;;;;4.87;3.40;;;;;;;;;;5090772;28;20214;-80
2023/06/29 01:06:04;;;;;;;3.60;3.30;;;;;;;;;;5109660;28;20229;-81
2023/06/29 01:08:35;;;;;;;3.90;3.53;;;;;;;;;;5111385;28;20232;-80
2023/06/29 01:11:04;;;;;;;5.67;3.63;;;;;;;;;;5112046;28;20203;-80
2023/06/29 01:13:32;;;;;;;3.33;3.10;;;;;;;;;;5098063;28;20209;-80
2023/06/29 01:16:01;;;;;;;4.33;3.70;;;;;;;;;;5091671;28;20598;-80
2023/06/29 01:18:29;;;;;;;3.83;3.53;;;;;;;;;;5104806;28;20276;-80
2023/06/29 01:20:57;;;;;;;3.50;3.20;;;;;;;;;;5099789;28;20582;-80
2023/06/29 01:23:25;;;;;;;3.53;3.23;;;;;;;;;;5096441;28;20741;-80
2023/06/29 01:25:54;;;;;;;3.40;3.20;;;;;;;;;;5091311;28;20677;-80
2023/06/29 01:28:21;;;;;;;4.20;3.80;;;;;;;;;;5104204;28;20230;-80
2023/06/29 01:30:49;;;;;;;3.90;3.60;;;;;;;;;;5099742;28;20201;-79
2023/06/29 01:33:17;;;;;;;3.83;3.53;;;;;;;;;;5108901;28;20201;-80
2023/06/29 01:35:44;;;;;;;4.17;3.77;;;;;;;;;;5100447;28;20232;-80
2023/06/29 01:38:14;;;;;;;4.80;4.07;;;;;;;;;;5095257;28;20210;-80
2023/06/29 01:40:42;;;;;;;3.90;3.50;;;;;;;;;;5101021;28;20212;-81
2023/06/29 01:43:10;;;;;;;3.83;3.53;;;;;;;;;;5110767;28;20633;-81
2023/06/29 01:45:37;;;;;;;4.20;3.80;;;;;;;;;;5100492;28;20223;-81
2023/06/29 01:48:04;;;;;;;3.73;3.43;;;;;;;;;;5107987;28;20310;-81
2023/06/29 01:50:31;;;;;;;4.67;3.43;;;;;;;;;;5100546;28;20201;-80
2023/06/29 01:52:58;;;;;;;4.10;3.80;;;;;;;;;;5108231;28;20204;-81
2023/06/29 01:55:25;;;;;;;3.97;3.67;;;;;;;;;;5100398;28;20252;-81
2023/06/29 01:57:52;;;;;;;4.00;3.60;;;;;;;;;;5090935;28;20217;-80
2023/06/29 02:00:21;;;;;;;4.43;4.03;;;;;;;;;;5101996;28;20704;-81
2023/06/29 02:02:48;;;;;;;4.90;3.77;;;;;;;;;;5106012;28;20642;-80
2023/06/29 02:05:14;;;;;;;4.67;3.77;;;;;;;;;;5102534;28;20245;-81
2023/06/29 02:07:41;;;;;;;7.43;4.23;;;;;;;;;;5105711;28;20249;-81
2023/06/29 02:10:09;;;;;;;6.23;4.30;;;;;;;;;;5103540;28;20649;-80
2023/06/29 02:12:36;;;;;;;3.60;3.30;;;;;;;;;;5091386;28;20690;-80
2023/06/29 02:15:03;;;;;;;4.30;4.00;;;;;;;;;;5092154;28;20214;-80
2023/06/29 02:17:31;;;;;;;4.07;3.67;;;;;;;;;;5110088;28;20208;-80
2023/06/29 02:19:58;;;;;;;4.97;4.57;;;;;;;;;;5108546;28;20265;-80
2023/06/29 02:22:25;;;;;;;4.93;4.00;;;;;;;;;;5107579;28;20202;-80
2023/06/29 02:24:52;;;;;;;3.97;3.67;;;;;;;;;;5094413;28;20206;-80
2023/06/29 02:27:18;;;;;;;4.00;3.60;;;;;;;;;;5094196;28;20205;-80
2023/06/29 02:29:45;;;;;;;4.77;3.70;;;;;;;;;;5107046;28;20254;-80
2023/06/29 02:32:12;;;;;;;3.90;3.60;;;;;;;;;;5114804;28;20213;-83
2023/06/29 02:34:40;;;;;;;3.93;3.47;;;;;;;;;;5096036;28;20203;-83
2023/06/29 02:37:08;;;;;;;4.53;4.00;;;;;;;;;;5094599;28;20211;-82
2023/06/29 02:39:34;;;;;;;7.27;4.00;;;;;;;;;;5076069;28;20199;-82
2023/06/29 02:42:02;;;;;;;3.70;3.33;;;;;;;;;;5088780;28;20205;-82
2023/06/29 02:44:28;;;;;;;3.80;3.50;;;;;;;;;;5076204;28;20714;-82
2023/06/29 02:46:56;;;;;;;3.07;2.87;;;;;;;;;;5094302;28;20211;-82
2023/06/29 02:49:23;;;;;;;3.97;3.50;;;;;;;;;;5095934;28;20783;-83
2023/06/29 02:51:51;;;;;;;3.70;3.40;;;;;;;;;;5100889;28;20212;-82
2023/06/29 02:54:18;;;;;;;3.80;3.50;;;;;;;;;;5107386;28;20197;-83
2023/06/29 02:56:45;;;;;;;3.70;3.40;;;;;;;;;;5089580;28;20203;-82
2023/06/29 02:59:12;;;;;;;3.87;3.57;;;;;;;;;;5093912;28;20221;-82
2023/06/29 03:01:39;;;;;;;3.63;3.30;;;;;;;;;;5107307;28;20626;-83
2023/06/29 03:04:06;;;;;;;3.63;3.33;;;;;;;;;;5094079;28;20205;-84
2023/06/29 03:06:33;;;;;;;13.47;11.60;;;;;;;;;;5076001;28;20251;-85
2023/06/29 03:09:03;;;;;;;12.30;11.13;;;;;;;;;;5066574;28;20728;-83
2023/06/29 03:11:30;;;;;;;25.13;15.00;;;;;;;;;;5098894;28;20693;-83
2023/06/29 03:13:57;;;;;;;6.57;5.90;;;;;;;;;;5083703;28;20710;-83
2023/06/29 03:16:25;;;;;;;14.83;9.40;;;;;;;;;;5095372;28;20289;-82
2023/06/29 03:18:52;;;;;;;4.33;3.60;;;;;;;;;;5113223;28;20211;-83
2023/06/29 03:21:19;;;;;;;21.13;14.33;;;;;;;;;;5081374;28;20689;-83
2023/06/29 03:23:47;;;;;;;8.57;6.47;;;;;;;;;;5086375;28;20203;-83
2023/06/29 03:26:15;;;;;;;4.13;3.67;;;;;;;;;;5103288;28;20673;-83
2023/06/29 03:28:42;;;;;;;4.17;3.70;;;;;;;;;;5113164;28;20617;-84
2023/06/29 03:31:08;;;;;;;4.07;3.47;;;;;;;;;;5113416;28;20215;-83
2023/06/29 03:33:36;;;;;;;3.80;2.77;;;;;;;;;;5094927;28;20207;-82
2023/06/29 03:36:04;;;;;;;3.73;3.43;;;;;;;;;;5093858;28;20243;-82
2023/06/29 03:38:31;;;;;;;3.77;3.40;;;;;;;;;;5079991;28;20203;-83
2023/06/29 03:40:58;;;;;;;4.77;3.63;;;;;;;;;;5113226;28;20214;-83
2023/06/29 03:43:27;;;;;;;4.23;3.83;;;;;;;;;;5077005;28;20206;-82
2023/06/29 03:45:54;;;;;;;3.73;3.43;;;;;;;;;;5078933;28;20198;-83
2023/06/29 03:48:22;;;;;;;3.73;3.43;;;;;;;;;;5092945;28;20226;-82
2023/06/29 03:50:49;;;;;;;4.13;3.80;;;;;;;;;;5085674;28;20204;-82
2023/06/29 03:53:15;;;;;;;3.90;3.60;;;;;;;;;;5100563;28;20205;-82
2023/06/29 03:55:43;;;;;;;7.17;3.47;;;;;;;;;;5094206;28;20195;-82
2023/06/29 03:58:09;;;;;;;5.77;3.33;;;;;;;;;;5094064;28;20206;-82
2023/06/29 04:00:39;;;;;;;3.80;3.37;;;;;;;;;;5096444;28;20215;-80
2023/06/29 04:03:05;;;;;;;4.00;3.60;;;;;;;;;;5110447;28;20206;-80
2023/06/29 04:05:32;;;;;;;4.03;3.73;;;;;;;;;;5103070;28;20222;-80
2023/06/29 04:08:02;;;;;;;4.27;3.97;;;;;;;;;;5091466;28;20661;-80
2023/06/29 04:10:29;;;;;;;4.00;3.63;;;;;;;;;;5099336;28;20206;-80
2023/06/29 04:12:55;;;;;;;4.40;4.00;;;;;;;;;;5111498;28;20206;-79
2023/06/29 04:15:22;;;;;;;3.90;3.60;;;;;;;;;;5111325;28;20681;-79
2023/06/29 04:17:53;;;;;;;4.27;3.87;;;;;;;;;;5101161;28;20211;-80
2023/06/29 04:20:20;;;;;;;4.50;3.37;;;;;;;;;;5105789;28;20203;-79
2023/06/29 04:22:46;;;;;;;4.67;3.90;;;;;;;;;;5103059;28;20203;-79
2023/06/29 04:25:13;;;;;;;4.33;4.03;;;;;;;;;;5096580;28;20205;-79
2023/06/29 04:27:40;;;;;;;3.83;3.53;;;;;;;;;;5111426;28;20203;-79
2023/06/29 04:30:09;;;;;;;4.33;3.90;;;;;;;;;;5112276;28;20231;-79
2023/06/29 04:32:36;;;;;;;4.20;3.50;;;;;;;;;;5101857;28;20317;-79
2023/06/29 04:35:04;;;;;;;5.03;4.37;;;;;;;;;;5105423;28;20289;-80
2023/06/29 04:37:40;;;;;;;3.87;3.57;;;;;;;;;;5102247;28;20687;-80
2023/06/29 04:40:10;;;;;;;3.93;3.63;;;;;;;;;;5111526;28;20205;-80
2023/06/29 04:42:43;;;;;;;3.97;3.67;;;;;;;;;;5098344;28;20225;-80
2023/06/29 04:45:12;;;;;;;3.53;3.23;;;;;;;;;;5102931;28;20202;-79
2023/06/29 04:47:40;;;;;;;5.63;3.73;;;;;;;;;;5106649;28;20230;-80
2023/06/29 04:50:10;;;;;;;3.83;3.53;;;;;;;;;;5111800;28;20229;-81
2023/06/29 04:52:37;;;;;;;3.87;3.47;;;;;;;;;;5109316;28;20200;-80
2023/06/29 04:55:04;;;;;;;3.73;3.43;;;;;;;;;;5091670;28;20209;-80
2023/06/29 04:57:31;;;;;;;3.70;3.40;;;;;;;;;;5091889;28;20665;-81
2023/06/29 04:59:58;;;;;;;5.63;3.57;;;;;;;;;;5101336;28;20289;-81
2023/06/29 05:02:25;;;;;;;3.33;3.07;;;;;;;;;;5095316;28;20206;-80
2023/06/29 05:04:52;;;;;;;5.60;3.33;;;;;;;;;;5101092;28;20244;-80
2023/06/29 05:07:20;;;;;;;3.20;3.00;;;;;;;;;;5098211;28;20213;-80
2023/06/29 05:09:47;;;;;;;4.13;3.47;;;;;;;;;;5111609;28;20297;-79
2023/06/29 05:12:14;;;;;;;3.80;3.40;;;;;;;;;;5097695;28;20207;-80
2023/06/29 05:14:41;;;;;;;3.10;2.90;;;;;;;;;;5101377;28;20207;-79
2023/06/29 05:17:08;;;;;;;3.60;3.30;;;;;;;;;;5108825;28;20202;-80
2023/06/29 05:19:36;;;;;;;3.40;3.20;;;;;;;;;;5111756;28;20237;-80
2023/06/29 05:22:03;;;;;;;3.53;3.23;;;;;;;;;;5097727;28;20748;-80
2023/06/29 05:24:31;;;;;;;3.80;3.20;;;;;;;;;;5099706;28;20283;-80
2023/06/29 05:26:58;;;;;;;3.50;3.30;;;;;;;;;;5104625;28;20208;-79
2023/06/29 05:29:25;;;;;;;3.67;3.37;;;;;;;;;;5091456;28;20251;-79
2023/06/29 05:31:55;;;;;;;3.40;3.10;;;;;;;;;;5108766;28;20717;-79
2023/06/29 05:34:22;;;;;;;5.17;3.60;;;;;;;;;;5099835;28;20207;-79
2023/06/29 05:36:48;;;;;;;3.67;3.20;;;;;;;;;;5109485;28;20195;-79
2023/06/29 05:39:15;;;;;;;3.50;3.20;;;;;;;;;;5111128;28;20208;-81
2023/06/29 05:41:43;;;;;;;3.83;3.47;;;;;;;;;;5110651;28;20205;-80
2023/06/29 05:44:10;;;;;;;6.00;3.37;;;;;;;;;;5110985;28;20202;-79
2023/06/29 05:46:37;;;;;;;3.37;3.13;;;;;;;;;;5093110;28;20578;-80
2023/06/29 05:49:04;;;;;;;4.10;3.70;;;;;;;;;;5090246;28;20234;-79
2023/06/29 05:51:31;;;;;;;3.33;3.13;;;;;;;;;;5096887;28;20200;-79
2023/06/29 05:53:58;;;;;;;3.33;3.03;;;;;;;;;;5098350;28;20249;-79
2023/06/29 05:56:25;;;;;;;4.13;3.73;;;;;;;;;;5096716;28;20196;-80
2023/06/29 05:58:56;;;;;;;3.50;3.20;;;;;;;;;;5097852;28;20682;-79
2023/06/29 06:01:23;;;;;;;3.63;3.33;;;;;;;;;;5097770;28;20618;-79
2023/06/29 06:03:49;;;;;;;3.47;3.27;;;;;;;;;;5110742;28;20597;-79
2023/06/29 06:06:16;;;;;;;3.90;3.57;;;;;;;;;;5090610;28;20196;-79
2023/06/29 06:08:43;;;;;;;4.60;3.03;;;;;;;;;;5104199;28;20203;-79
2023/06/29 06:11:10;;;;;;;4.43;4.03;;;;;;;;;;5097806;28;20223;-79
2023/06/29 06:13:36;;;;;;;3.80;3.50;;;;;;;;;;5096803;28;20196;-79
2023/06/29 06:16:05;;;;;;;5.03;3.33;;;;;;;;;;5098271;28;20196;-79
2023/06/29 06:18:32;;;;;;;4.13;3.50;;;;;;;;;;5096905;28;20212;-79
2023/06/29 06:20:59;;;;;;;3.70;3.40;;;;;;;;;;5102911;28;20212;-80
2023/06/29 06:23:25;;;;;;;3.10;2.90;;;;;;;;;;5105805;28;20195;-79
2023/06/29 06:25:52;;;;;;;4.97;3.07;;;;;;;;;;5098946;28;20203;-79
2023/06/29 06:28:19;;;;;;;3.43;3.13;;;;;;;;;;5096072;28;20204;-80
2023/06/29 06:30:46;;;;;;;6.37;3.57;;;;;;;;;;5098886;28;20227;-80
2023/06/29 06:33:15;;;;;;;3.67;3.33;;;;;;;;;;5110717;28;20199;-80
2023/06/29 06:35:43;;;;;;;3.50;3.30;;;;;;;;;;5110683;28;20255;-80
2023/06/29 06:38:10;;;;;;;3.20;2.90;;;;;;;;;;5097196;28;20196;-80
2023/06/29 06:40:36;;;;;;;2.87;2.67;;;;;;;;;;5102143;28;20204;-80
2023/06/29 06:43:04;;;;;;;2.97;2.70;;;;;;;;;;5090588;28;20269;-80
2023/06/29 06:45:31;;;;;;;3.00;2.80;;;;;;;;;;5090867;28;20211;-80
2023/06/29 06:47:58;;;;;;;4.57;3.00;;;;;;;;;;5104049;28;20219;-80
2023/06/29 06:50:26;;;;;;;4.47;3.30;;;;;;;;;;5090125;28;20227;-80
2023/06/29 06:52:52;;;;;;;6.80;3.30;;;;;;;;;;5104041;28;20208;-80
2023/06/29 06:55:19;;;;;;;3.70;3.40;;;;;;;;;;5101043;28;20206;-80
2023/06/29 06:57:47;;;;;;;3.50;3.20;;;;;;;;;;5093096;28;20224;-80
2023/06/29 07:00:15;;;;;;;4.33;3.07;;;;;;;;;;5101317;28;20204;-80
2023/06/29 07:02:41;;;;;;;3.40;3.10;;;;;;;;;;5096534;28;20203;-80
2023/06/29 07:05:08;;;;;;;2.70;2.50;;;;;;;;;;5094686;28;20201;-79
2023/06/29 07:07:37;;;;;;;3.40;2.60;;;;;;;;;;5098402;28;20622;-80
2023/06/29 07:10:04;;;;;;;3.67;3.00;;;;;;;;;;5102230;28;20319;-80
2023/06/29 07:12:31;;;;;;;3.37;3.07;;;;;;;;;;5107000;28;20208;-80
2023/06/29 07:14:58;;;;;;;3.17;2.87;;;;;;;;;;5105989;28;20596;-80
2023/06/29 07:17:26;;;;;;;3.00;2.70;;;;;;;;;;5100239;28;20666;-80
2023/06/29 07:19:52;;;;;;;2.67;2.47;;;;;;;;;;5101470;28;20207;-80
2023/06/29 07:22:20;;;;;;;4.93;2.30;;;;;;;;;;5106840;28;20200;-80
2023/06/29 07:24:48;;;;;;;4.07;3.17;;;;;;;;;;5094348;28;20207;-80
2023/06/29 07:27:15;;;;;;;3.43;3.13;;;;;;;;;;5099666;28;20633;-80
2023/06/29 07:29:42;;;;;;;2.50;2.30;;;;;;;;;;5100685;28;20310;-80
2023/06/29 07:32:09;;;;;;;2.80;2.60;;;;;;;;;;5107056;28;20193;-80
2023/06/29 07:34:36;;;;;;;3.90;2.90;;;;;;;;;;5106853;28;20587;-80
2023/06/29 07:37:03;;;;;;;3.80;2.40;;;;;;;;;;5099785;28;20546;-80
2023/06/29 07:39:30;;;;;;;2.57;2.37;;;;;;;;;;5100038;28;20197;-80
2023/06/29 07:41:58;;;;;;;3.20;2.80;;;;;;;;;;5113187;28;20666;-80
2023/06/29 07:44:25;;;;;;;4.80;3.30;;;;;;;;;;5099854;28;20219;-80
2023/06/29 07:46:55;;;;;;;5.63;3.10;;;;;;;;;;5100187;28;20200;-79
2023/06/29 07:49:23;;;;;;;2.60;2.40;;;;;;;;;;5113017;28;20219;-79
2023/06/29 07:51:50;;;;;;;2.73;2.53;;;;;;;;;;5112946;28;20211;-80
2023/06/29 07:54:17;;;;;;;2.57;2.37;;;;;;;;;;5100029;28;20203;-80
2023/06/29 07:56:43;;;;;;;2.57;2.40;;;;;;;;;;5105515;28;20290;-80
2023/06/29 07:59:12;;;;;;;3.13;2.83;;;;;;;;;;5094906;28;20212;-80
2023/06/29 08:01:38;;;;;;;3.13;2.93;;;;;;;;;;5113341;28;20206;-80
2023/06/29 08:04:06;;;;;;;3.20;2.90;;;;;;;;;;5110804;28;20207;-80
2023/06/29 08:06:33;;;;;;;2.93;2.63;;;;;;;;;;5102099;28;20754;-80
2023/06/29 08:09:00;;;;;;;5.03;2.77;;;;;;;;;;5096533;28;20204;-80
2023/06/29 08:11:27;;;;;;;3.97;2.63;;;;;;;;;;5101585;28;20219;-79
2023/06/29 08:13:54;;;;;;;2.70;2.50;;;;;;;;;;5112794;28;20204;-80
2023/06/29 08:16:22;;;;;;;2.67;2.40;;;;;;;;;;5103531;28;20200;-80
2023/06/29 08:18:49;;;;;;;2.40;2.30;;;;;;;;;;5105865;28;20705;-80
2023/06/29 08:21:16;;;;;;;3.40;2.53;;;;;;;;;;5102564;28;20195;-80
2023/06/29 08:23:43;;;;;;;4.03;2.60;;;;;;;;;;5095918;28;20610;-80
2023/06/29 08:26:09;;;;;;;4.33;2.67;;;;;;;;;;5092946;28;20196;-80
2023/06/29 08:28:36;;;;;;;7.20;2.53;;;;;;;;;;5106209;28;20211;-81
2023/06/29 08:31:04;;;;;;;3.43;2.70;;;;;;;;;;5092298;28;20224;-80
2023/06/29 08:33:32;;;;;;;2.40;2.20;;;;;;;;;;5092083;28;20204;-81
2023/06/29 08:35:59;;;;;;;3.03;2.63;;;;;;;;;;5103730;28;20305;-80
2023/06/29 08:38:26;;;;;;;3.40;2.63;;;;;;;;;;5094018;28;20193;-80
2023/06/29 08:40:53;;;;;;;4.60;2.13;;;;;;;;;;5103785;28;20199;-80
2023/06/29 08:43:19;;;;;;;2.83;2.50;;;;;;;;;;5093552;28;20204;-80
2023/06/29 08:45:46;;;;;;;4.87;2.80;;;;;;;;;;5104263;28;20207;-81
2023/06/29 08:48:13;;;;;;;2.80;2.60;;;;;;;;;;5098743;28;20195;-80
2023/06/29 08:50:45;;;;;;;3.03;2.73;;;;;;;;;;5099927;28;20220;-80
2023/06/29 08:53:12;;;;;;;2.17;1.97;;;;;;;;;;5111780;28;20231;-80
2023/06/29 08:55:39;;;;;;;3.10;2.80;;;;;;;;;;5111935;28;20199;-81
2023/06/29 08:58:06;;;;;;;3.30;2.50;;;;;;;;;;5105806;28;20247;-80
2023/06/29 09:00:33;;;;;;;3.03;2.80;;;;;;;;;;5091641;28;20196;-81
2023/06/29 09:03:00;;;;;;;3.07;2.77;;;;;;;;;;5098267;28;20214;-81
2023/06/29 09:05:27;;;;;;;4.40;2.70;;;;;;;;;;5111843;28;20206;-80
2023/06/29 09:07:55;;;;;;;3.53;3.03;;;;;;;;;;5112216;28;20264;-81
2023/06/29 09:10:22;;;;;;;2.90;2.70;;;;;;;;;;5111557;28;20639;-81
2023/06/29 09:12:49;;;;;;;2.90;2.70;;;;;;;;;;5112039;28;20234;-80
2023/06/29 09:15:17;;;;;;;2.73;2.53;;;;;;;;;;5096635;28;20203;-81
2023/06/29 09:17:45;;;;;;;2.97;2.63;;;;;;;;;;5100086;28;20613;-81
2023/06/29 09:20:15;;;;;;;3.37;3.03;;;;;;;;;;5111112;28;20248;-80
2023/06/29 09:22:43;;;;;;;2.83;2.50;;;;;;;;;;5111962;28;20624;-80
2023/06/29 09:25:13;;;;;;;2.93;2.17;;;;;;;;;;5096869;28;20211;-80
2023/06/29 09:27:40;;;;;;;3.67;3.27;;;;;;;;;;5102797;28;20212;-81
2023/06/29 09:30:08;;;;;;;4.50;2.93;;;;;;;;;;5093635;28;20222;-81
2023/06/29 09:32:37;;;;;;;2.67;2.20;;;;;;;;;;5101078;28;20205;-81
2023/06/29 09:35:08;;;;;;;3.87;2.63;;;;;;;;;;5094466;28;20717;-81
2023/06/29 09:37:36;;;;;;;2.60;2.40;;;;;;;;;;5100276;28;20319;-80
2023/06/29 09:40:09;;;;;;;2.67;2.47;;;;;;;;;;5104457;28;20204;-80
2023/06/29 09:42:40;;;;;;;2.47;2.27;;;;;;;;;;5090553;28;20602;-81
2023/06/29 09:45:11;;;;;;;4.07;2.07;;;;;;;;;;5104264;28;20206;-80
2023/06/29 09:47:40;;;;;;;1.90;1.80;;;;;;;;;;5104241;28;20203;-81
2023/06/29 09:50:18;;;;;;;2.90;2.33;;;;;;;;;;5111100;28;20247;-80
2023/06/29 09:52:46;;;;;;;2.27;2.03;;;;;;;;;;5108687;28;20287;-81
2023/06/29 09:55:13;;;;;;;2.00;1.90;;;;;;;;;;5100067;28;20250;-80
2023/06/29 09:57:42;;;;;;;2.47;2.27;;;;;;;;;;5094922;28;20207;-81
2023/06/29 10:00:12;;;;;;;4.93;2.10;;;;;;;;;;5101038;28;20199;-81
2023/06/29 10:02:39;;;;;;;2.30;2.10;;;;;;;;;;5097208;28;20203;-81
2023/06/29 10:05:06;;;;;;;1.93;1.83;;;;;;;;;;5100128;28;20257;-80
2023/06/29 10:07:34;;;;;;;2.77;2.57;;;;;;;;;;5107582;28;20736;-81
2023/06/29 10:10:00;;;;;;;3.40;2.00;;;;;;;;;;5110762;28;20618;-81
2023/06/29 10:12:28;;;;;;;2.03;1.93;;;;;;;;;;5106817;28;20204;-81
2023/06/29 10:15:00;;;;;;;2.20;2.10;;;;;;;;;;5101641;28;20203;-81
2023/06/29 10:17:31;;;;;;;4.40;2.43;;;;;;;;;;5097027;28;20206;-81
2023/06/29 10:20:00;;;;;;;1.93;1.83;;;;;;;;;;5111087;28;20231;-81
2023/06/29 10:22:28;;;;;;;2.10;2.00;;;;;;;;;;5110512;28;20195;-82
2023/06/29 10:24:58;;;;;;;1.83;1.73;;;;;;;;;;5097250;28;20267;-82
2023/06/29 10:27:26;;;;;;;2.17;1.93;;;;;;;;;;5097151;28;20200;-81
2023/06/29 10:29:53;;;;;;;2.23;2.07;;;;;;;;;;5097466;28;20591;-82
2023/06/29 10:32:31;;;;;;;2.03;1.93;;;;;;;;;;5103137;28;20621;-82
2023/06/29 10:35:02;;;;;;;3.20;2.07;;;;;;;;;;5103997;28;20330;-82
2023/06/29 10:37:32;;;;;;;3.13;2.40;;;;;;;;;;5104161;28;20206;-82
2023/06/29 10:39:59;;;;;;;2.30;2.10;;;;;;;;;;5101462;28;20204;-82
2023/06/29 10:42:54;;;;;;;2.30;2.10;;;;;;;;;;5103807;28;20250;-82
2023/06/29 10:45:32;;;;;;;3.50;2.00;;;;;;;;;;5094581;28;20269;-82
2023/06/29 10:48:13;;;;;;;2.07;1.90;;;;;;;;;;5110551;28;20207;-82
2023/06/29 10:50:44;;;;;;;2.40;2.07;;;;;;;;;;5102746;28;20228;-79
2023/06/29 10:53:12;;;;;;;1.73;1.63;;;;;;;;;;5107793;28;20250;-80
2023/06/29 10:55:56;;;;;;;3.17;2.20;;;;;;;;;;5094270;28;20204;-82
2023/06/29 10:58:23;;;;;;;2.23;2.13;;;;;;;;;;5099922;28;20192;-81
2023/06/29 11:00:52;;;;;;;1.70;1.60;;;;;;;;;;5112555;28;20199;-81
2023/06/29 11:03:20;;;;;;;2.63;1.83;;;;;;;;;;5094129;28;20291;-80
2023/06/29 11:05:48;;;;;;;2.17;1.97;;;;;;;;;;5110365;28;20828;-80
2023/06/29 11:08:15;;;;;;;2.07;1.97;;;;;;;;;;5104670;28;20201;-81
2023/06/29 11:10:42;;;;;;;1.90;1.80;;;;;;;;;;5093611;28;20212;-80
2023/06/29 11:13:10;;;;;;;1.80;1.70;;;;;;;;;;5104057;28;20256;-81
2023/06/29 11:15:37;;;;;;;2.97;2.23;;;;;;;;;;5100608;28;20586;-81
2023/06/29 11:18:05;;;;;;;3.07;2.20;;;;;;;;;;5113670;28;20239;-81
2023/06/29 11:20:34;;;;;;;2.97;1.90;;;;;;;;;;5113885;28;20295;-82
2023/06/29 11:23:02;;;;;;;2.33;2.13;;;;;;;;;;5113868;28;20260;-81
2023/06/29 11:25:29;;;;;;;2.40;2.20;;;;;;;;;;5113948;28;20200;-81
2023/06/29 11:27:56;;;;;;;2.47;1.70;;;;;;;;;;5113561;28;20203;-81
2023/06/29 11:30:23;;;;;;;2.23;2.00;;;;;;;;;;5100177;28;20199;-81
2023/06/29 11:32:55;;;;;;;2.03;1.83;;;;;;;;;;5113655;28;20207;-82
2023/06/29 11:35:23;;;;;;;1.73;1.43;;;;;;;;;;5113641;28;20227;-81
2023/06/29 11:37:53;;;;;;;1.67;1.50;;;;;;;;;;5101086;28;20211;-83
2023/06/29 11:40:21;;;;;;;3.30;1.63;;;;;;;;;;5113081;28;20701;-81
2023/06/29 11:42:49;;;;;;;1.50;1.40;;;;;;;;;;5099912;28;20204;-81
2023/06/29 11:45:16;;;;;;;1.53;1.43;;;;;;;;;;5100049;28;20560;-81
2023/06/29 11:47:44;;;;;;;2.00;1.70;;;;;;;;;;5099166;28;20223;-80
2023/06/29 11:50:11;;;;;;;3.07;1.60;;;;;;;;;;5105969;28;20698;-81
2023/06/29 11:52:40;;;;;;;1.83;1.43;;;;;;;;;;5092874;28;20208;-81
2023/06/29 11:55:11;;;;;;;1.17;1.17;;;;;;;;;;5092714;28;20666;-81
2023/06/29 11:57:39;;;;;;;1.23;1.13;;;;;;;;;;5108429;28;20203;-81
2023/06/29 12:00:26;;;;;;;1.40;1.30;;;;;;;;;;5104060;28;20207;-81
2023/06/29 12:02:52;;;;;;;2.53;1.73;;;;;;;;;;5106087;28;20201;-81
2023/06/29 12:05:19;;;;;;;1.47;1.37;;;;;;;;;;5092593;28;20206;-81
2023/06/29 12:07:47;;;;;;;2.10;1.90;;;;;;;;;;5098287;28;20196;-81
2023/06/29 12:10:21;;;;;;;1.63;1.37;;;;;;;;;;5099925;28;20204;-80
2023/06/29 12:12:55;;;;;;;1.37;1.27;;;;;;;;;;5099948;28;20203;-81
2023/06/29 12:15:23;;;;;;;1.70;1.40;;;;;;;;;;5111620;28;20658;-81
2023/06/29 12:17:53;;;;;;;2.17;1.70;;;;;;;;;;5101566;28;20208;-80
2023/06/29 12:20:21;;;;;;;1.50;1.40;;;;;;;;;;5099298;28;20204;-81
2023/06/29 12:22:53;;;;;;;1.43;1.33;;;;;;;;;;5112709;28;20711;-80
2023/06/29 12:25:22;;;;;;;1.70;1.40;;;;;;;;;;5099183;28;20200;-81
2023/06/29 12:27:52;;;;;;;2.40;1.27;;;;;;;;;;5112731;28;20202;-80
2023/06/29 12:30:21;;;;;;;1.43;1.33;;;;;;;;;;5098998;28;20200;-80
2023/06/29 12:32:48;;;;;;;1.30;1.20;;;;;;;;;;5112637;28;20322;-80
2023/06/29 12:35:15;;;;;;;1.50;1.40;;;;;;;;;;5112015;28;20230;-81
2023/06/29 12:37:42;;;;;;;2.17;1.20;;;;;;;;;;5112522;28;20584;-80
2023/06/29 12:40:10;;;;;;;3.57;1.90;;;;;;;;;;5093876;28;20211;-81
2023/06/29 12:42:38;;;;;;;1.60;1.50;;;;;;;;;;5103663;28;20208;-80
2023/06/29 12:45:06;;;;;;;2.30;1.30;;;;;;;;;;5098547;28;20224;-80
2023/06/29 12:47:34;;;;;;;1.90;1.60;;;;;;;;;;5112515;28;20204;-80
2023/06/29 12:50:01;;;;;;;1.50;1.40;;;;;;;;;;5111975;28;20198;-80
2023/06/29 12:52:28;;;;;;;1.60;1.50;;;;;;;;;;5112313;28;20613;-81
2023/06/29 12:54:56;;;;;;;1.37;1.27;;;;;;;;;;5098487;28;20268;-81
2023/06/29 12:57:26;;;;;;;2.72;1.42;;;;;;;;;;5111824;28;20234;-80
2023/06/29 12:59:54;;;;;;;2.10;1.40;;;;;;;;;;5091524;28;20232;-81
2023/06/29 13:02:22;;;;;;;2.40;1.50;;;;;;;;;;5105727;28;20662;-81
2023/06/29 13:04:48;;;;;;;2.47;1.70;;;;;;;;;;5099431;28;20257;-80
2023/06/29 13:07:17;;;;;;;1.75;1.65;;;;;;;;;;5111645;28;20673;-81
2023/06/29 13:09:44;;;;;;;4.22;1.83;;;;;;;;;;5103550;28;20679;-81
2023/06/29 13:12:14;;;;;;;1.65;1.40;;;;;;;;;;5092729;28;20775;-80
2023/06/29 13:14:41;;;;;;;1.60;1.50;;;;;;;;;;5102891;28;20204;-80
2023/06/29 13:17:10;;;;;;;2.63;2.10;;;;;;;;;;5091295;28;20564;-81
2023/06/29 13:19:39;;;;;;;1.80;1.58;;;;;;;;;;5091213;28;20204;-80
2023/06/29 13:22:06;;;;;;;1.50;1.40;;;;;;;;;;5090855;28;20238;-81
2023/06/29 13:24:33;;;;;;;1.53;1.43;;;;;;;;;;5092428;28;20204;-81
2023/06/29 13:27:01;;;;;;;1.70;1.60;;;;;;;;;;5107648;28;20593;-81
2023/06/29 13:29:27;;;;;;;2.70;1.80;;;;;;;;;;5111570;28;20199;-82
2023/06/29 13:31:54;;;;;;;2.03;1.50;;;;;;;;;;5098062;28;20219;-81
2023/06/29 13:34:23;;;;;;;3.27;1.40;;;;;;;;;;5100734;28;20193;-81
2023/06/29 13:36:49;;;;;;;1.70;1.60;;;;;;;;;;5064467;28;20631;-81
2023/06/29 13:39:16;;;;;;;1.42;1.33;;;;;;;;;;5050676;28;20213;-81
2023/06/29 13:41:44;;;;;;;2.40;1.40;;;;;;;;;;5055489;28;20602;-81
2023/06/29 13:44:12;;;;;;;1.48;1.40;;;;;;;;;;5059384;28;20210;-81
2023/06/29 13:46:40;;;;;;;2.70;1.20;;;;;;;;;;5050675;28;20197;-80
2023/06/29 13:49:06;;;;;;;1.60;1.50;;;;;;;;;;5050534;28;20202;-81
2023/06/29 13:51:35;;;;;;;1.60;1.50;;;;;;;;;;5056629;28;20656;-81
2023/06/29 13:54:04;;;;;;;1.60;1.50;;;;;;;;;;5057783;28;20205;-81
2023/06/29 13:56:34;;;;;;;1.45;1.35;;;;;;;;;;5057914;28;20200;-81
2023/06/29 13:59:03;;;;;;;1.52;1.42;;;;;;;;;;5057323;28;20260;-81
2023/06/29 14:01:30;;;;;;;2.75;1.77;;;;;;;;;;5063380;28;20562;-81
2023/06/29 14:03:59;;;;;;;2.50;1.60;;;;;;;;;;5063920;28;20288;-81
2023/06/29 14:06:26;;;;;;;1.80;1.40;;;;;;;;;;5050748;28;20205;-81
2023/06/29 14:08:54;;;;;;;1.30;1.20;;;;;;;;;;5050216;28;20201;-80
2023/06/29 14:11:23;;;;;;;2.42;1.80;;;;;;;;;;5063295;28;20227;-80
2023/06/29 14:13:51;;;;;;;1.60;1.50;;;;;;;;;;5060957;28;20209;-80
2023/06/29 14:16:17;;;;;;;1.60;1.50;;;;;;;;;;5064862;28;20216;-80
2023/06/29 14:18:44;;;;;;;1.67;1.50;;;;;;;;;;5067692;28;20198;-81
2023/06/29 14:21:11;;;;;;;1.60;1.50;;;;;;;;;;5064426;28;20204;-81
2023/06/29 14:23:38;;;;;;;2.67;1.95;;;;;;;;;;5058545;28;20200;-80
2023/06/29 14:26:06;;;;;;;2.63;2.15;;;;;;;;;;5063797;28;20687;-81
2023/06/29 14:28:33;;;;;;;1.47;1.37;;;;;;;;;;5058345;28;20258;-81
2023/06/29 14:30:59;;;;;;;2.00;1.60;;;;;;;;;;5054158;28;20213;-80
2023/06/29 14:33:26;;;;;;;1.60;1.37;;;;;;;;;;5067235;28;20225;-80
2023/06/29 14:35:53;;;;;;;2.80;1.50;;;;;;;;;;5079556;28;20225;-80
2023/06/29 14:38:20;;;;;;;2.47;1.70;;;;;;;;;;5111628;28;20717;-80
2023/06/29 14:40:46;;;;;;;1.67;1.57;;;;;;;;;;5103347;28;20230;-80
2023/06/29 14:43:15;;;;;;;1.73;1.63;;;;;;;;;;5094529;28;20204;-80
2023/06/29 14:45:42;;;;;;;2.33;1.50;;;;;;;;;;5094248;28;20204;-80
2023/06/29 14:48:09;;;;;;;1.93;1.70;;;;;;;;;;5099043;28;20219;-80